createdAt,value
2016-02-02T00:17:36.018Z,100626
2016-02-02T00:17:46.599Z,100632
2016-02-02T00:17:57.068Z,100632
2016-02-02T00:18:07.568Z,100610
2016-02-02T00:18:17.849Z,100626
2016-02-02T00:18:28.396Z,100621
2016-02-02T00:18:38.802Z,100629
2016-02-02T00:18:49.288Z,100607
2016-02-02T00:18:59.648Z,100626
2016-02-02T00:19:10.163Z,100629
2016-02-02T00:19:20.820Z,100632
2016-02-02T00:19:31.085Z,100621
2016-02-02T00:19:41.588Z,100629
2016-02-02T00:19:51.932Z,100632
2016-02-02T00:35:45.719Z,100621
2016-02-02T00:35:56.188Z,100621
2016-02-02T00:36:07.422Z,100599
2016-02-02T00:36:18.297Z,100604
2016-02-02T00:36:28.907Z,100618
2016-02-02T00:44:49.621Z,100632
2016-02-02T00:45:00.090Z,100612
2016-02-02T00:45:10.887Z,100623
2016-02-02T00:46:15.343Z,100626
2016-02-02T00:46:25.780Z,100623
2016-02-02T00:46:36.749Z,100623
2016-02-02T00:47:43.832Z,100621
2016-02-02T00:47:54.567Z,100624
2016-02-02T00:48:05.270Z,100613
2016-02-02T00:48:16.208Z,100610
2016-02-02T00:48:26.911Z,100610
2016-02-02T00:48:37.458Z,100615
2016-02-02T00:48:47.899Z,100618
2016-02-02T00:48:58.446Z,100599
2016-02-02T00:49:08.867Z,100601
2016-02-02T00:49:19.274Z,100621
2016-02-02T00:49:29.883Z,100613
2016-02-02T00:49:40.321Z,100610
2016-02-02T00:49:51.214Z,100612
2016-02-02T00:50:01.761Z,100610
2016-02-02T00:51:07.341Z,100610
2016-02-02T00:51:18.497Z,100598
2016-02-02T00:51:28.919Z,100612
2016-02-02T00:51:39.560Z,100612
2016-02-02T00:51:58.063Z,100607
2016-02-02T00:52:08.782Z,100612
2016-02-02T00:52:19.704Z,100615
2016-02-02T00:52:30.079Z,100609
2016-02-02T00:52:40.547Z,100615
2016-02-02T00:52:50.989Z,100612
2016-02-02T00:53:01.520Z,100607
2016-02-02T00:53:12.083Z,100618
2016-02-02T00:53:22.692Z,100612
2016-02-02T00:53:33.348Z,100612
2016-02-02T00:53:58.492Z,100607
2016-02-02T00:54:09.070Z,100607
2016-02-02T00:54:19.617Z,100604
2016-02-02T00:54:30.273Z,100609
2016-02-02T01:03:02.086Z,100615
2016-02-02T01:03:12.461Z,100601
2016-02-02T01:03:23.227Z,100599
2016-02-02T01:03:33.711Z,100601
2016-02-02T01:03:44.526Z,100596
2016-02-02T01:03:55.151Z,100601
2016-02-02T01:04:06.307Z,100596
2016-02-02T01:04:18.104Z,100601
2016-02-02T01:04:31.057Z,100615
2016-02-02T01:04:42.448Z,100607
2016-02-02T01:04:53.794Z,100610
2016-02-02T01:05:04.591Z,100610
2016-02-02T01:05:16.560Z,100615
2016-02-02T01:05:27.826Z,100610
2016-02-02T01:05:38.529Z,100604
2016-02-02T01:05:49.922Z,100607
2016-02-02T01:06:01.219Z,100612
2016-02-02T01:06:11.797Z,100601
2016-02-02T01:06:22.344Z,100604
2016-02-02T01:06:33.032Z,100593
2016-02-02T01:06:48.160Z,100599
2016-02-02T01:06:58.972Z,100599
2016-02-02T01:07:10.160Z,100596
2016-02-02T01:07:20.925Z,100598
2016-02-02T01:07:32.488Z,100612
2016-02-02T01:07:43.331Z,100615
2016-02-02T01:07:54.398Z,100601
2016-02-02T01:08:06.085Z,100593
2016-02-02T01:08:17.804Z,100604
2016-02-02T01:08:28.539Z,100587
2016-02-02T01:08:39.523Z,100596
2016-02-02T01:08:50.228Z,100590
2016-02-02T01:09:00.962Z,100596
2016-02-02T01:09:11.573Z,100593
2016-02-02T01:10:19.576Z,100596
2016-02-02T01:10:31.451Z,100604
2016-02-02T01:10:43.045Z,100598
2016-02-02T01:10:55.593Z,100596
2016-02-02T01:11:07.140Z,100598
2016-02-02T01:11:18.812Z,100596
2016-02-02T01:11:33.718Z,100590
2016-02-02T01:11:48.893Z,100607
2016-02-02T01:13:03.849Z,100593
2016-02-02T01:13:15.193Z,100587
2016-02-02T01:13:26.693Z,100590
2016-02-02T01:13:38.006Z,100593
2016-02-02T01:13:49.133Z,100596
2016-02-02T01:14:00.242Z,100604
2016-02-02T01:14:11.758Z,100601
2016-02-02T01:14:23.289Z,100587
2016-02-02T01:14:33.945Z,100590
2016-02-02T01:14:44.995Z,100598
2016-02-02T01:14:56.073Z,100590
2016-02-02T01:15:08.433Z,100587
2016-02-02T01:15:20.073Z,100596
2016-02-02T01:15:31.042Z,100607
2016-02-02T01:15:41.370Z,100596
2016-02-02T01:15:51.748Z,100590
2016-02-02T01:16:02.357Z,100596
2016-02-02T01:16:12.904Z,100593
2016-02-02T01:16:23.326Z,100601
2016-02-02T01:16:33.686Z,100604
2016-02-02T01:16:49.532Z,100615
2016-02-02T01:16:59.954Z,100607
2016-02-02T01:17:10.376Z,100596
2016-02-02T01:17:20.689Z,100593
2016-02-02T01:17:33.376Z,100609
2016-02-02T01:17:44.800Z,100607
2016-02-02T01:17:55.409Z,100593
2016-02-02T01:18:05.847Z,100580
2016-02-02T01:18:16.394Z,100598
2016-02-02T01:18:26.832Z,100604
2016-02-02T01:18:37.192Z,100593
2016-02-02T01:18:47.445Z,100596
2016-02-02T01:18:57.851Z,100596
2016-02-02T01:19:08.288Z,100607
2016-02-02T01:19:19.195Z,100598
2016-02-02T01:20:28.540Z,100604
2016-02-02T01:20:39.087Z,100587
2016-02-02T01:20:49.371Z,100596
2016-02-02T01:20:59.746Z,100604
2016-02-02T01:21:19.512Z,100590
2016-02-02T01:21:30.106Z,100598
2016-02-02T01:21:40.387Z,100601
2016-02-02T01:21:50.765Z,100598
2016-02-02T01:22:01.296Z,100601
2016-02-02T01:22:11.640Z,100609
2016-02-02T01:22:23.421Z,100583
2016-02-02T01:22:35.624Z,100590
2016-02-02T01:22:46.611Z,100598
2016-02-02T01:22:57.595Z,100590
2016-02-02T01:23:08.001Z,100601
2016-02-02T01:30:27.424Z,100609
2016-02-02T01:30:37.643Z,100604
2016-02-02T01:30:48.020Z,100615
2016-02-02T01:30:58.223Z,100607
2016-02-02T01:31:08.801Z,100590
2016-02-02T01:31:19.270Z,100601
2016-02-02T01:31:29.535Z,100598
2016-02-02T01:31:39.879Z,100596
2016-02-02T01:31:50.240Z,100607
2016-02-02T01:32:00.600Z,100601
2016-02-02T01:32:11.240Z,100590
2016-02-02T01:32:21.568Z,100598
2016-02-02T01:32:31.928Z,100601
2016-02-02T01:32:42.209Z,100590
2016-02-02T01:32:52.494Z,100598
2016-02-02T01:33:06.963Z,100595
2016-02-02T01:33:17.322Z,100595
2016-02-02T01:33:27.729Z,100598
2016-02-02T01:33:38.088Z,100607
2016-02-02T01:33:48.559Z,100601
2016-02-02T01:33:59.153Z,100607
2016-02-02T01:34:09.559Z,100612
2016-02-02T01:34:19.903Z,100593
2016-02-02T01:34:30.168Z,100604
2016-02-02T01:34:40.389Z,100601
2016-02-02T01:34:50.641Z,100596
2016-02-02T01:35:01.844Z,100604
2016-02-02T01:35:14.656Z,100593
2016-02-02T01:39:32.216Z,100595
2016-02-02T01:39:42.716Z,100598
2016-02-02T01:39:53.235Z,100607
2016-02-02T01:40:03.751Z,100598
2016-02-02T01:40:16.204Z,100609
2016-02-02T01:40:27.110Z,100607
2016-02-02T01:48:46.436Z,100606
2016-02-02T01:48:57.139Z,100604
2016-02-02T01:49:08.561Z,100615
2016-02-02T01:49:19.983Z,100606
2016-02-02T01:49:31.061Z,100615
2016-02-02T01:49:41.701Z,100615
2016-02-02T01:49:52.297Z,100604
2016-02-02T01:50:04.594Z,100617
2016-02-02T01:50:16.594Z,100606
2016-02-02T01:50:28.063Z,100606
2016-02-02T01:50:39.031Z,100604
2016-02-02T01:50:49.894Z,100620
2016-02-02T01:51:01.506Z,100617
2016-02-02T01:51:12.694Z,100612
2016-02-02T01:51:23.772Z,100609
2016-02-02T01:51:35.412Z,100606
2016-02-02T01:51:46.194Z,100606
2016-02-02T01:51:57.164Z,100601
2016-02-02T01:52:08.696Z,100604
2016-02-02T01:52:24.211Z,100609
2016-02-02T01:52:35.149Z,100609
2016-02-02T01:52:45.633Z,100598
2016-02-02T01:52:56.200Z,100606
2016-02-02T01:53:06.762Z,100601
2016-02-02T01:53:17.934Z,100612
2016-02-02T01:53:28.340Z,100587
2016-02-02T01:53:38.887Z,100609
2016-02-02T01:53:49.827Z,100604
2016-02-02T01:54:01.233Z,100593
2016-02-02T01:54:11.936Z,100615
2016-02-02T01:54:22.983Z,100615
2016-02-02T01:54:33.405Z,100606
2016-02-02T01:54:43.967Z,100595
2016-02-02T01:54:54.563Z,100601
2016-02-02T01:55:05.922Z,100609
2016-02-02T01:56:08.413Z,100612
2016-02-02T01:56:19.069Z,100612
2016-02-02T01:56:29.678Z,100601
2016-02-02T01:56:40.241Z,100612
2016-02-02T01:56:50.853Z,100612
2016-02-02T01:57:01.369Z,100609
2016-02-02T01:57:12.369Z,100609
2016-02-02T01:57:22.869Z,100606
2016-02-02T01:57:54.997Z,100609
2016-02-02T01:59:01.547Z,100606
2016-02-02T01:59:11.719Z,100598
2016-02-02T01:59:22.015Z,100615
2016-02-02T01:59:32.500Z,100595
2016-02-02T01:59:43.000Z,100612
2016-02-02T01:59:53.347Z,100615
2016-02-02T02:00:05.409Z,100620
2016-02-02T02:00:16.957Z,100626
2016-02-02T02:00:28.019Z,100612
2016-02-02T02:00:38.301Z,100631
2016-02-02T02:00:48.663Z,100614
2016-02-02T02:00:59.054Z,100612
2016-02-02T02:01:09.288Z,100612
2016-02-02T02:02:13.290Z,100604
2016-02-02T02:02:23.509Z,100606
2016-02-02T02:02:33.712Z,100620
2016-02-02T02:02:44.071Z,100609
2016-02-02T02:02:54.340Z,100609
2016-02-02T02:03:04.606Z,100595
2016-02-02T02:03:15.106Z,100606
2016-02-02T02:03:25.465Z,100615
2016-02-02T02:03:36.324Z,100601
2016-02-02T02:03:46.527Z,100606
2016-02-02T02:03:56.968Z,100615
2016-02-02T02:04:07.327Z,100606
2016-02-02T02:04:17.812Z,100609
2016-02-02T02:04:28.202Z,100604
2016-02-02T02:04:38.484Z,100615
2016-02-02T02:04:48.940Z,100617
2016-02-02T02:04:59.551Z,100609
2016-02-02T02:05:10.098Z,100603
2016-02-02T02:05:20.629Z,100615
2016-02-02T02:05:30.942Z,100620
2016-02-02T02:05:41.379Z,100620
2016-02-02T02:05:51.584Z,100617
2016-02-02T02:06:01.912Z,100620
2016-02-02T02:06:54.228Z,100628
2016-02-02T02:07:04.431Z,100620
2016-02-02T02:07:15.212Z,100612
2016-02-02T02:07:25.556Z,100620
2016-02-02T02:07:36.384Z,100617
2016-02-02T02:07:46.884Z,100617
2016-02-02T02:07:57.137Z,100617
2016-02-02T02:08:07.825Z,100604
2016-02-02T02:08:18.059Z,100620
2016-02-02T02:08:28.325Z,100617
2016-02-02T02:08:38.668Z,100617
2016-02-02T02:08:49.015Z,100617
2016-02-02T02:08:59.812Z,100612
2016-02-02T02:09:10.062Z,100620
2016-02-02T02:09:20.421Z,100617
2016-02-02T02:09:30.860Z,100609
2016-02-02T02:09:41.313Z,100617
2016-02-02T02:09:51.487Z,100615
2016-02-02T02:10:01.987Z,100612
2016-02-02T02:10:15.049Z,100606
2016-02-02T02:10:25.815Z,100612
2016-02-02T02:10:36.081Z,100612
2016-02-02T02:10:46.440Z,100617
2016-02-02T02:10:56.708Z,100615
2016-02-02T02:11:07.317Z,100626
2016-02-02T02:11:18.098Z,100615
2016-02-02T02:11:28.473Z,100620
2016-02-02T02:11:38.926Z,100620
2016-02-02T02:11:49.273Z,100628
2016-02-02T02:11:59.601Z,100617
2016-02-02T02:12:09.945Z,100606
2016-02-02T02:12:20.195Z,100626
2016-02-02T02:12:30.429Z,100615
2016-02-02T02:12:40.711Z,100617
2016-02-02T02:12:51.135Z,100623
2016-02-02T02:13:01.589Z,100609
2016-02-02T02:16:11.394Z,100626
2016-02-02T02:16:22.144Z,100603
2016-02-02T02:17:29.279Z,100606
2016-02-02T02:17:40.264Z,100617
2016-02-02T02:17:50.970Z,100601
2016-02-02T02:18:01.720Z,100609
2016-02-02T02:18:12.298Z,100623
2016-02-02T02:18:22.798Z,100625
2016-02-02T02:18:33.235Z,100612
2016-02-02T02:18:43.579Z,100612
2016-02-02T02:18:54.144Z,100617
2016-02-02T02:19:04.878Z,100620
2016-02-02T02:19:15.441Z,100617
2016-02-02T02:19:26.394Z,100614
2016-02-02T02:19:36.909Z,100626
2016-02-02T02:19:47.597Z,100626
2016-02-02T02:19:58.130Z,100615
2016-02-02T02:20:09.974Z,100617
2016-02-02T02:20:21.255Z,100623
2016-02-02T02:20:31.771Z,100617
2016-02-02T02:20:42.364Z,100606
2016-02-02T02:20:52.805Z,100609
2016-02-02T02:21:03.789Z,100620
2016-02-02T02:21:14.212Z,100617
2016-02-02T02:21:24.915Z,100617
2016-02-02T02:21:35.165Z,100623
2016-02-02T02:21:45.493Z,100623
2016-02-02T02:21:55.965Z,100623
2016-02-02T02:22:06.481Z,100617
2016-02-02T02:22:16.996Z,100615
2016-02-02T02:22:27.325Z,100617
2016-02-02T02:22:37.965Z,100628
2016-02-02T02:22:49.421Z,100609
2016-02-02T02:22:59.671Z,100617
2016-02-02T02:23:10.093Z,100620
2016-02-02T02:23:20.468Z,100614
2016-02-02T02:23:31.078Z,100625
2016-02-02T02:23:41.453Z,100620
2016-02-02T02:23:51.970Z,100612
2016-02-02T02:24:02.455Z,100628
2016-02-02T02:24:13.126Z,100625
2016-02-02T02:24:23.736Z,100623
2016-02-02T02:24:37.220Z,100612
2016-02-02T02:24:48.709Z,100614
2016-02-02T02:25:20.224Z,100623
2016-02-02T02:25:30.537Z,100617
2016-02-02T02:25:41.209Z,100609
2016-02-02T02:25:51.730Z,100612
2016-02-02T02:26:02.105Z,100614
2016-02-02T02:26:12.558Z,100620
2016-02-02T02:26:23.277Z,100628
2016-02-02T02:26:33.855Z,100628
2016-02-02T02:26:44.839Z,100620
2016-02-02T02:26:55.513Z,100617
2016-02-02T02:27:06.045Z,100606
2016-02-02T02:27:17.076Z,100617
2016-02-02T02:27:27.670Z,100612
2016-02-02T02:27:38.123Z,100612
2016-02-02T02:27:48.579Z,100623
2016-02-02T02:27:59.282Z,100617
2016-02-02T02:28:09.954Z,100609
2016-02-02T02:28:20.376Z,100614
2016-02-02T02:28:31.110Z,100609
2016-02-02T02:28:41.594Z,100614
2016-02-02T02:28:51.988Z,100614
2016-02-02T02:29:02.474Z,100606
2016-02-02T02:29:12.802Z,100617
2016-02-02T02:29:23.224Z,100609
2016-02-02T02:29:33.677Z,100601
2016-02-02T02:29:44.287Z,100612
2016-02-02T02:29:54.555Z,100614
2016-02-02T02:30:05.430Z,100612
2016-02-02T02:30:16.712Z,100612
2016-02-02T02:30:27.274Z,100612
2016-02-02T02:34:27.254Z,100620
2016-02-02T02:34:37.723Z,100609
2016-02-02T02:34:48.191Z,100612
2016-02-02T02:34:58.553Z,100620
2016-02-02T02:35:10.928Z,100620
2016-02-02T02:35:21.928Z,100606
2016-02-02T02:35:32.631Z,100612
2016-02-02T02:35:43.037Z,100614
2016-02-02T02:35:53.275Z,100634
2016-02-02T02:36:03.681Z,100620
2016-02-02T02:36:13.993Z,100609
2016-02-02T02:36:24.259Z,100612
2016-02-02T02:36:34.775Z,100620
2016-02-02T02:43:33.060Z,100606
2016-02-02T02:43:43.623Z,100614
2016-02-02T02:43:54.781Z,100589
2016-02-02T02:44:05.500Z,100592
2016-02-02T02:44:15.812Z,100598
2016-02-02T02:44:26.156Z,100598
2016-02-02T02:44:36.687Z,100590
2016-02-02T02:44:47.468Z,100582
2016-02-02T02:44:58.097Z,100582
2016-02-02T02:45:09.082Z,100609
2016-02-02T02:46:15.146Z,100606
2016-02-02T02:46:25.474Z,100603
2016-02-02T02:46:35.881Z,100603
2016-02-02T02:46:46.337Z,100603
2016-02-02T02:46:57.120Z,100606
2016-02-02T02:47:07.854Z,100590
2016-02-02T02:47:18.448Z,100595
2016-02-02T02:47:29.058Z,100592
2016-02-02T02:47:39.511Z,100601
2016-02-02T02:47:49.951Z,100592
2016-02-02T02:48:00.342Z,100595
2016-02-02T02:48:11.092Z,100609
2016-02-02T02:48:21.857Z,100595
2016-02-02T02:48:32.295Z,100582
2016-02-02T02:48:42.654Z,100582
2016-02-02T02:48:53.204Z,100582
2016-02-02T02:49:03.798Z,100598
2016-02-02T02:49:14.814Z,100595
2016-02-02T02:49:25.329Z,100601
2016-02-02T02:49:36.470Z,100592
2016-02-02T02:49:47.720Z,100595
2016-02-02T02:49:58.207Z,100609
2016-02-02T02:50:08.692Z,100589
2016-02-02T02:51:17.412Z,100587
2016-02-02T02:51:27.960Z,100603
2016-02-02T02:51:38.523Z,100606
2016-02-02T02:51:49.132Z,100603
2016-02-02T02:51:59.635Z,100595
2016-02-02T02:52:10.276Z,100598
2016-02-02T02:52:32.072Z,100595
2016-02-02T02:52:42.479Z,100592
2016-02-02T02:52:53.138Z,100589
2016-02-02T02:53:03.482Z,100595
2016-02-02T02:53:14.075Z,100592
2016-02-02T02:53:24.591Z,100595
2016-02-02T02:53:35.122Z,100595
2016-02-02T02:53:45.716Z,100579
2016-02-02T02:53:56.297Z,100582
2016-02-02T02:54:06.719Z,100592
2016-02-02T02:54:17.360Z,100590
2016-02-02T02:54:28.032Z,100590
2016-02-02T02:54:38.891Z,100592
2016-02-02T02:54:50.768Z,100595
2016-02-02T02:55:02.705Z,100592
2016-02-02T02:55:13.565Z,100587
2016-02-02T02:55:24.174Z,100592
2016-02-02T02:55:35.096Z,100590
2016-02-02T02:55:45.674Z,100587
2016-02-02T02:55:56.427Z,100598
2016-02-02T02:56:07.291Z,100582
2016-02-02T02:56:17.947Z,100582
2016-02-02T02:56:28.541Z,100590
2016-02-02T02:56:39.400Z,100582
2016-02-02T02:56:50.058Z,100601
2016-02-02T02:57:00.605Z,100592
2016-02-02T02:57:12.261Z,100603
2016-02-02T02:57:22.933Z,100579
2016-02-02T02:57:34.074Z,100589
2016-02-02T02:57:48.855Z,100582
2016-02-02T02:57:59.389Z,100601
2016-02-02T02:58:09.842Z,100592
2016-02-02T02:58:20.217Z,100592
2016-02-02T02:58:30.937Z,100576
2016-02-02T02:58:41.531Z,100592
2016-02-02T02:58:52.159Z,100592
2016-02-02T02:59:09.038Z,100589
2016-02-02T02:59:19.600Z,100603
2016-02-02T02:59:30.178Z,100582
2016-02-02T02:59:40.616Z,100589
2016-02-02T02:59:51.618Z,100595
2016-02-02T03:00:02.493Z,100592
2016-02-02T03:00:13.368Z,100592
2016-02-02T03:01:19.324Z,100595
2016-02-02T03:01:41.449Z,100592
2016-02-02T03:01:51.921Z,100582
2016-02-02T03:02:02.296Z,100598
2016-02-02T03:02:12.999Z,100589
2016-02-02T03:02:23.358Z,100563
2016-02-02T03:02:33.780Z,100587
2016-02-02T03:02:44.421Z,100595
2016-02-02T03:02:54.954Z,100589
2016-02-02T03:03:05.768Z,100576
2016-02-02T03:03:16.408Z,100592
2016-02-02T03:03:27.096Z,100587
2016-02-02T03:03:37.705Z,100582
2016-02-02T03:03:48.705Z,100592
2016-02-02T03:03:59.380Z,100565
2016-02-02T03:04:10.849Z,100587
2016-02-02T03:04:21.556Z,100576
2016-02-02T03:04:32.009Z,100574
2016-02-02T03:04:42.603Z,100579
2016-02-02T03:04:53.198Z,100565
2016-02-02T03:05:04.511Z,100587
2016-02-02T03:05:15.401Z,100574
2016-02-02T03:05:27.964Z,100579
2016-02-02T03:05:38.667Z,100574
2016-02-02T03:05:49.245Z,100563
2016-02-02T03:05:59.796Z,100592
2016-02-02T03:06:10.343Z,100582
2016-02-02T03:06:21.421Z,100595
2016-02-02T03:06:31.952Z,100579
2016-02-02T03:06:42.437Z,100574
2016-02-02T03:06:53.237Z,100574
2016-02-02T03:07:03.674Z,100592
2016-02-02T03:07:14.080Z,100574
2016-02-02T03:07:24.674Z,100589
2016-02-02T03:07:35.362Z,100579
2016-02-02T03:07:45.878Z,100574
2016-02-02T03:07:56.708Z,100582
2016-02-02T03:08:07.427Z,100579
2016-02-02T03:08:18.052Z,100592
2016-02-02T03:08:28.599Z,100568
2016-02-02T03:08:39.271Z,100574
2016-02-02T03:08:49.896Z,100590
2016-02-02T03:09:00.554Z,100576
2016-02-02T03:09:11.273Z,100579
2016-02-02T03:09:22.148Z,100582
2016-02-02T03:09:33.195Z,100582
2016-02-02T03:09:43.867Z,100576
2016-02-02T03:09:54.338Z,100587
2016-02-02T03:10:05.432Z,100579
2016-02-02T03:10:16.307Z,100571
2016-02-02T03:10:28.432Z,100582
2016-02-02T03:11:25.654Z,100595
2016-02-02T03:11:35.904Z,100587
2016-02-02T03:11:46.389Z,100598
2016-02-02T03:11:56.955Z,100579
2016-02-02T03:12:08.080Z,100582
2016-02-02T03:12:18.423Z,100582
2016-02-02T03:12:28.846Z,100579
2016-02-02T03:12:39.815Z,100576
2016-02-02T03:12:50.112Z,100576
2016-02-02T03:13:00.411Z,100589
2016-02-02T03:13:10.879Z,100589
2016-02-02T03:13:21.333Z,100592
2016-02-02T03:13:34.348Z,100600
2016-02-02T03:13:44.897Z,100589
2016-02-02T03:13:55.400Z,100587
2016-02-02T03:14:05.728Z,100571
2016-02-02T03:14:16.103Z,100582
2016-02-02T03:14:27.088Z,100587
2016-02-02T03:14:37.447Z,100589
2016-02-02T03:14:47.777Z,100600
2016-02-02T03:14:58.093Z,100606
2016-02-02T03:15:08.733Z,100592
2016-02-02T03:15:19.905Z,100598
2016-02-02T03:15:30.843Z,100600
2016-02-02T03:15:43.233Z,100587
2016-02-02T03:15:53.548Z,100595
2016-02-02T03:16:03.860Z,100606
2016-02-02T03:16:14.126Z,100595
2016-02-02T03:16:24.626Z,100595
2016-02-02T03:16:35.876Z,100612
2016-02-02T03:20:07.388Z,100582
2016-02-02T03:20:18.075Z,100601
2016-02-02T03:20:28.685Z,100574
2016-02-02T03:20:39.466Z,100579
2016-02-02T03:20:50.075Z,100587
2016-02-02T03:21:00.563Z,100601
2016-02-02T03:21:11.109Z,100592
2016-02-02T03:21:22.016Z,100595
2016-02-02T03:21:32.516Z,100603
2016-02-02T03:21:43.156Z,100589
2016-02-02T03:21:53.565Z,100595
2016-02-02T03:22:04.190Z,100579
2016-02-02T03:22:14.658Z,100589
2016-02-02T03:22:25.236Z,100592
2016-02-02T03:22:35.611Z,100587
2016-02-02T03:22:46.111Z,100576
2016-02-02T03:22:56.662Z,100595
2016-02-02T03:23:07.522Z,100587
2016-02-02T03:23:17.834Z,100587
2016-02-02T03:23:28.506Z,100587
2016-02-02T03:23:39.225Z,100576
2016-02-02T03:23:49.740Z,100579
2016-02-02T03:24:55.562Z,100579
2016-02-02T03:25:06.656Z,100592
2016-02-02T03:25:17.343Z,100587
2016-02-02T03:25:27.843Z,100574
2016-02-02T03:25:38.281Z,100587
2016-02-02T03:25:48.812Z,100577
2016-02-02T03:26:51.801Z,100582
2016-02-02T03:27:02.551Z,100590
2016-02-02T03:27:13.116Z,100582
2016-02-02T03:27:23.506Z,100595
2016-02-02T03:27:33.991Z,100574
2016-02-02T03:27:44.459Z,100577
2016-02-02T03:28:49.606Z,100571
2016-02-02T03:29:40.577Z,100603
2016-02-02T03:29:51.030Z,100579
2016-02-02T03:30:02.737Z,100590
2016-02-02T03:30:14.994Z,100574
2016-02-02T03:38:11.097Z,100587
2016-02-02T03:38:21.519Z,100574
2016-02-02T03:38:32.144Z,100571
2016-02-02T03:38:48.816Z,100574
2016-02-02T03:38:59.522Z,100577
2016-02-02T03:39:10.116Z,100579
2016-02-02T03:39:20.928Z,100582
2016-02-02T03:39:31.522Z,100579
2016-02-02T03:39:43.037Z,100595
2016-02-02T03:39:53.680Z,100574
2016-02-02T03:40:06.571Z,100577
2016-02-02T03:41:15.604Z,100574
2016-02-02T03:41:25.791Z,100582
2016-02-02T03:41:36.088Z,100571
2016-02-02T03:41:46.432Z,100568
2016-02-02T03:41:56.779Z,100579
2016-02-02T03:42:07.013Z,100571
2016-02-02T03:42:17.248Z,100582
2016-02-02T03:42:27.607Z,100582
2016-02-02T03:42:38.454Z,100587
2016-02-02T03:42:48.688Z,100568
2016-02-02T03:42:59.421Z,100577
2016-02-02T03:43:10.015Z,100579
2016-02-02T03:43:20.203Z,100571
2016-02-02T03:43:30.484Z,100579
2016-02-02T03:43:41.796Z,100574
2016-02-02T03:43:52.265Z,100568
2016-02-02T03:44:02.787Z,100574
2016-02-02T03:44:12.928Z,100587
2016-02-02T03:44:23.194Z,100582
2016-02-02T03:44:33.772Z,100595
2016-02-02T03:44:44.194Z,100577
2016-02-02T03:44:55.623Z,100579
2016-02-02T03:45:06.123Z,100579
2016-02-02T03:45:17.139Z,100574
2016-02-02T03:45:27.498Z,100577
2016-02-02T03:45:37.795Z,100557
2016-02-02T03:45:48.076Z,100590
2016-02-02T03:45:58.270Z,100579
2016-02-02T03:46:08.442Z,100582
2016-02-02T03:46:18.927Z,100587
2016-02-02T03:46:29.223Z,100566
2016-02-02T03:46:39.458Z,100582
2016-02-02T03:46:49.598Z,100574
2016-02-02T03:46:59.981Z,100582
2016-02-02T03:47:19.153Z,100601
2016-02-02T03:47:29.512Z,100582
2016-02-02T03:47:39.794Z,100587
2016-02-02T03:47:50.356Z,100590
2016-02-02T03:48:01.521Z,100598
2016-02-02T03:48:12.005Z,100577
2016-02-02T03:48:22.380Z,100590
2016-02-02T03:48:33.724Z,100587
2016-02-02T03:48:44.177Z,100587
2016-02-02T03:48:54.926Z,100582
2016-02-02T03:49:09.645Z,100601
2016-02-02T03:49:20.301Z,100598
2016-02-02T03:49:31.598Z,100574
2016-02-02T03:49:41.882Z,100574
2016-02-02T03:49:52.226Z,100577
2016-02-02T03:50:02.880Z,100574
2016-02-02T03:50:13.568Z,100563
2016-02-02T03:50:24.193Z,100598
2016-02-02T03:50:34.443Z,100557
2016-02-02T03:50:44.927Z,100568
2016-02-02T03:50:55.114Z,100590
2016-02-02T03:51:05.395Z,100560
2016-02-02T03:51:15.739Z,100592
2016-02-02T03:51:26.082Z,100571
2016-02-02T03:51:36.379Z,100568
2016-02-02T03:51:46.707Z,100577
2016-02-02T03:51:56.972Z,100568
2016-02-02T03:52:07.441Z,100557
2016-02-02T03:52:17.659Z,100568
2016-02-02T03:52:28.534Z,100563
2016-02-02T03:52:39.081Z,100568
2016-02-02T03:52:49.238Z,100563
2016-02-02T03:52:59.346Z,100571
2016-02-02T03:53:09.846Z,100574
2016-02-02T03:53:20.174Z,100568
2016-02-02T03:53:30.643Z,100571
2016-02-02T03:53:41.815Z,100579
2016-02-02T03:53:52.065Z,100568
2016-02-02T03:54:03.253Z,100577
2016-02-02T03:54:13.581Z,100579
2016-02-02T03:54:23.942Z,100568
2016-02-02T03:54:34.692Z,100566
2016-02-02T03:54:45.129Z,100590
2016-02-02T03:54:55.427Z,100566
2016-02-02T03:56:28.475Z,100566
2016-02-02T03:56:39.006Z,100566
2016-02-02T03:56:49.694Z,100574
2016-02-02T03:56:59.945Z,100563
2016-02-02T03:57:10.304Z,100560
2016-02-02T03:57:20.992Z,100568
2016-02-02T03:57:31.554Z,100579
2016-02-02T03:57:42.351Z,100560
2016-02-02T03:57:53.431Z,100554
2016-02-02T03:58:04.259Z,100563
2016-02-02T03:58:21.744Z,100568
2016-02-02T03:58:32.353Z,100574
2016-02-02T03:58:43.478Z,100563
2016-02-02T03:58:54.215Z,100560
2016-02-02T03:59:05.122Z,100568
2016-02-02T03:59:18.793Z,100560
2016-02-02T03:59:29.762Z,100563
2016-02-02T03:59:40.418Z,100574
2016-02-02T03:59:50.575Z,100552
2016-02-02T04:00:04.983Z,100543
2016-02-02T04:00:17.280Z,100557
2016-02-02T04:00:27.749Z,100555
2016-02-02T04:01:32.187Z,100555
2016-02-02T04:02:33.377Z,100549
2016-02-02T04:02:43.767Z,100560
2016-02-02T04:02:53.911Z,100560
2016-02-02T04:03:04.145Z,100554
2016-02-02T04:03:14.395Z,100554
2016-02-02T04:03:25.333Z,100568
2016-02-02T04:03:35.601Z,100560
2016-02-02T04:04:43.589Z,100568
2016-02-02T04:04:53.795Z,100574
2016-02-02T04:05:04.420Z,100568
2016-02-02T04:05:45.763Z,100568
2016-02-02T04:05:56.110Z,100571
2016-02-02T04:06:06.720Z,100568
2016-02-02T04:06:17.173Z,100563
2016-02-02T04:06:27.845Z,100590
2016-02-02T04:06:38.329Z,100571
2016-02-02T04:06:49.063Z,100574
2016-02-02T04:06:59.661Z,100582
2016-02-02T04:07:10.302Z,100563
2016-02-02T04:07:21.036Z,100574
2016-02-02T04:07:31.599Z,100574
2016-02-02T04:07:42.349Z,100577
2016-02-02T04:07:53.130Z,100590
2016-02-02T04:08:03.757Z,100587
2016-02-02T04:08:14.116Z,100582
2016-02-02T04:08:24.554Z,100582
2016-02-02T04:08:35.007Z,100566
2016-02-02T04:08:45.538Z,100571
2016-02-02T04:08:56.072Z,100560
2016-02-02T04:09:06.588Z,100576
2016-02-02T04:09:17.244Z,100571
2016-02-02T04:09:28.041Z,100582
2016-02-02T04:09:38.525Z,100587
2016-02-02T04:09:49.119Z,100574
2016-02-02T04:09:59.777Z,100587
2016-02-02T04:10:12.074Z,100582
2016-02-02T04:10:24.059Z,100579
2016-02-02T04:10:34.638Z,100577
2016-02-02T04:10:45.435Z,100587
2016-02-02T04:10:56.047Z,100560
2016-02-02T04:11:06.547Z,100571
2016-02-02T04:11:17.578Z,100590
2016-02-02T04:11:28.031Z,100579
2016-02-02T04:11:38.469Z,100571
2016-02-02T04:11:48.922Z,100574
2016-02-02T04:11:59.738Z,100563
2016-02-02T04:12:10.503Z,100565
2016-02-02T04:12:21.175Z,100568
2016-02-02T04:12:31.722Z,100568